sensor_id;sensor_type;location;lat;lon;timestamp;pressure;altitude;pressure_sealevel;temperature;humidity
59859;BME280;45734;53.648;9.566;2024-02-26T00:04:49;53548.13;;;-145.06;100.00
59859;BME280;45734;53.648;9.566;2024-02-26T00:09:53;53495.47;;;-145.06;100.00
59859;BME280;45734;53.648;9.566;2024-02-26T00:14:53;53507.63;;;-145.06;100.00
59859;BME280;45734;53.648;9.566;2024-02-26T00:19:53;53517.75;;;-145.06;100.00
59859;BME280;45734;53.648;9.566;2024-02-26T00:24:54;53495.47;;;-145.06;100.00
59859;BME280;45734;53.648;9.566;2024-02-26T00:29:54;53552.19;;;-145.06;100.00
59859;BME280;45734;53.648;9.566;2024-02-26T00:34:54;53550.16;;;-145.06;100.00
59859;BME280;45734;53.648;9.566;2024-02-26T00:39:55;53533.94;;;-145.06;100.00
59859;BME280;45734;53.648;9.566;2024-02-26T00:44:55;53594.69;;;-145.06;100.00
59859;BME280;45734;53.648;9.566;2024-02-26T00:49:55;53588.63;;;-145.06;100.00
59859;BME280;45734;53.648;9.566;2024-02-26T00:54:56;53596.72;;;-145.06;100.00
59859;BME280;45734;53.648;9.566;2024-02-26T00:59:56;53572.44;;;-145.06;100.00
59859;BME280;45734;53.648;9.566;2024-02-26T01:04:57;53612.94;;;-145.06;100.00
59859;BME280;45734;53.648;9.566;2024-02-26T01:09:57;53546.09;;;-145.06;100.00
59859;BME280;45734;53.648;9.566;2024-02-26T01:14:57;53540.03;;;-145.06;100.00
59859;BME280;45734;53.648;9.566;2024-02-26T01:19:57;53535.97;;;-145.06;100.00
59859;BME280;45734;53.648;9.566;2024-02-26T01:24:58;53527.88;;;-145.06;100.00
59859;BME280;45734;53.648;9.566;2024-02-26T01:29:58;53503.56;;;-145.06;100.00
59859;BME280;45734;53.648;9.566;2024-02-26T01:34:58;53450.94;;;-145.06;100.00
59859;BME280;45734;53.648;9.566;2024-02-26T01:39:59;53448.91;;;-145.06;100.00
59859;BME280;45734;53.648;9.566;2024-02-26T01:44:59;53442.81;;;-145.06;100.00
59859;BME280;45734;53.648;9.566;2024-02-26T01:50:00;53404.34;;;-145.06;100.00
59859;BME280;45734;53.648;9.566;2024-02-26T01:55:00;53426.63;;;-145.06;100.00
59859;BME280;45734;53.648;9.566;2024-02-26T02:00:01;53442.81;;;-145.06;100.00
59859;BME280;45734;53.648;9.566;2024-02-26T02:05:02;53446.88;;;-145.06;100.00
59859;BME280;45734;53.648;9.566;2024-02-26T02:10:04;53430.69;;;-145.06;100.00
59859;BME280;45734;53.648;9.566;2024-02-26T02:15:05;53373.97;;;-145.06;100.00
59859;BME280;45734;53.648;9.566;2024-02-26T02:20:14;53246.41;;;-145.06;100.00
59859;BME280;45734;53.648;9.566;2024-02-26T02:25:15;53153.28;;;-145.06;100.00
59859;BME280;45734;53.648;9.566;2024-02-26T02:30:15;53191.75;;;-145.06;100.00
59859;BME280;45734;53.648;9.566;2024-02-26T02:35:16;53272.75;;;-145.06;100.00
59859;BME280;45734;53.648;9.566;2024-02-26T02:40:16;53313.22;;;-145.06;100.00
59859;BME280;45734;53.648;9.566;2024-02-26T02:45:16;53337.53;;;-145.06;100.00
59859;BME280;45734;53.648;9.566;2024-02-26T02:50:17;53323.34;;;-145.06;100.00
59859;BME280;45734;53.648;9.566;2024-02-26T02:55:17;53282.88;;;-145.06;100.00
59859;BME280;45734;53.648;9.566;2024-02-26T03:00:18;53284.88;;;-145.06;100.00
59859;BME280;45734;53.648;9.566;2024-02-26T03:05:18;53280.84;;;-145.06;100.00
59859;BME280;45734;53.648;9.566;2024-02-26T03:10:19;53270.72;;;-145.06;100.00
59859;BME280;45734;53.648;9.566;2024-02-26T03:15:19;53260.59;;;-145.06;100.00
59859;BME280;45734;53.648;9.566;2024-02-26T03:20:20;53252.50;;;-145.06;100.00
59859;BME280;45734;53.648;9.566;2024-02-26T03:25:20;53288.94;;;-145.06;100.00
59859;BME280;45734;53.648;9.566;2024-02-26T03:30:20;53278.81;;;-145.06;100.00
59859;BME280;45734;53.648;9.566;2024-02-26T03:35:20;53266.66;;;-145.06;100.00
59859;BME280;45734;53.648;9.566;2024-02-26T03:40:21;53246.41;;;-145.06;100.00
59859;BME280;45734;53.648;9.566;2024-02-26T03:45:21;53242.38;;;-145.06;100.00
59859;BME280;45734;53.648;9.566;2024-02-26T03:50:21;53256.53;;;-145.06;100.00
59859;BME280;45734;53.648;9.566;2024-02-26T03:55:22;53290.97;;;-145.06;100.00
59859;BME280;45734;53.648;9.566;2024-02-26T04:00:24;53309.19;;;-145.06;100.00
59859;BME280;45734;53.648;9.566;2024-02-26T04:05:26;53295.00;;;-145.06;100.00
59859;BME280;45734;53.648;9.566;2024-02-26T04:10:26;53297.03;;;-145.06;100.00
59859;BME280;45734;53.648;9.566;2024-02-26T04:15:26;53307.16;;;-145.06;100.00
59859;BME280;45734;53.648;9.566;2024-02-26T04:20:27;53337.53;;;-145.06;100.00
59859;BME280;45734;53.648;9.566;2024-02-26T04:25:27;53347.66;;;-145.06;100.00
59859;BME280;45734;53.648;9.566;2024-02-26T04:30:28;53327.41;;;-145.06;100.00
59859;BME280;45734;53.648;9.566;2024-02-26T04:35:29;53313.22;;;-145.06;100.00
59859;BME280;45734;53.648;9.566;2024-02-26T04:40:29;53343.59;;;-145.06;100.00
59859;BME280;45734;53.648;9.566;2024-02-26T04:45:29;53321.34;;;-145.06;100.00
59859;BME280;45734;53.648;9.566;2024-02-26T04:50:30;53365.88;;;-145.06;100.00
59859;BME280;45734;53.648;9.566;2024-02-26T04:55:30;53373.97;;;-145.06;100.00
59859;BME280;45734;53.648;9.566;2024-02-26T05:00:30;53369.94;;;-145.06;100.00
59859;BME280;45734;53.648;9.566;2024-02-26T05:05:30;53384.09;;;-145.06;100.00
59859;BME280;45734;53.648;9.566;2024-02-26T05:10:31;53392.19;;;-145.06;100.00
59859;BME280;45734;53.648;9.566;2024-02-26T05:15:31;53396.25;;;-145.06;100.00
59859;BME280;45734;53.648;9.566;2024-02-26T05:20:32;53337.53;;;-145.06;100.00
59859;BME280;45734;53.648;9.566;2024-02-26T05:25:35;53386.13;;;-145.06;100.00
59859;BME280;45734;53.648;9.566;2024-02-26T05:30:35;53345.63;;;-145.06;100.00
59859;BME280;45734;53.648;9.566;2024-02-26T05:35:37;53388.16;;;-145.06;100.00
59859;BME280;45734;53.648;9.566;2024-02-26T05:40:38;53400.31;;;-145.06;100.00
59859;BME280;45734;53.648;9.566;2024-02-26T05:45:38;53398.28;;;-145.06;100.00
59859;BME280;45734;53.648;9.566;2024-02-26T05:50:39;53390.19;;;-145.06;100.00
59859;BME280;45734;53.648;9.566;2024-02-26T05:55:39;53380.06;;;-145.06;100.00
59859;BME280;45734;53.648;9.566;2024-02-26T06:00:39;53386.13;;;-145.06;100.00
59859;BME280;45734;53.648;9.566;2024-02-26T06:05:39;53410.44;;;-145.06;100.00
59859;BME280;45734;53.648;9.566;2024-02-26T06:10:40;53384.09;;;-145.06;100.00
59859;BME280;45734;53.648;9.566;2024-02-26T06:15:40;53392.19;;;-145.06;100.00
59859;BME280;45734;53.648;9.566;2024-02-26T06:20:41;53388.16;;;-145.06;100.00
59859;BME280;45734;53.648;9.566;2024-02-26T06:25:41;53412.44;;;-145.06;100.00
59859;BME280;45734;53.648;9.566;2024-02-26T06:30:42;53392.19;;;-145.06;100.00
59859;BME280;45734;53.648;9.566;2024-02-26T06:35:43;53406.38;;;-145.06;100.00
59859;BME280;45734;53.648;9.566;2024-02-26T06:40:44;53384.09;;;-145.06;100.00
59859;BME280;45734;53.648;9.566;2024-02-26T06:45:44;53386.13;;;-145.06;100.00
59859;BME280;45734;53.648;9.566;2024-02-26T06:50:45;53416.50;;;-145.06;100.00
59859;BME280;45734;53.648;9.566;2024-02-26T06:55:45;53420.56;;;-145.06;100.00
59859;BME280;45734;53.648;9.566;2024-02-26T07:00:45;53388.16;;;-145.06;100.00
59859;BME280;45734;53.648;9.566;2024-02-26T07:05:46;53400.31;;;-145.06;100.00
59859;BME280;45734;53.648;9.566;2024-02-26T07:10:46;53414.47;;;-145.06;100.00
59859;BME280;45734;53.648;9.566;2024-02-26T07:15:46;53386.13;;;-145.06;100.00
59859;BME280;45734;53.648;9.566;2024-02-26T07:20:47;53406.38;;;-145.06;100.00
59859;BME280;45734;53.648;9.566;2024-02-26T07:25:47;53418.53;;;-145.06;100.00
59859;BME280;45734;53.648;9.566;2024-02-26T07:30:50;53398.28;;;-145.06;100.00
59859;BME280;45734;53.648;9.566;2024-02-26T07:35:50;53392.19;;;-145.06;100.00
59859;BME280;45734;53.648;9.566;2024-02-26T07:40:50;53384.09;;;-145.06;100.00
59859;BME280;45734;53.648;9.566;2024-02-26T07:45:51;53361.81;;;-145.06;100.00
59859;BME280;45734;53.648;9.566;2024-02-26T07:50:51;53323.34;;;-145.06;100.00
59859;BME280;45734;53.648;9.566;2024-02-26T07:55:51;53303.09;;;-145.06;100.00
59859;BME280;45734;53.648;9.566;2024-02-26T08:00:51;53278.81;;;-145.06;100.00
59859;BME280;45734;53.648;9.566;2024-02-26T08:05:52;53268.69;;;-145.06;100.00
59859;BME280;45734;53.648;9.566;2024-02-26T08:10:52;53276.78;;;-145.06;100.00
59859;BME280;45734;53.648;9.566;2024-02-26T08:15:52;53236.28;;;-145.06;100.00
59859;BME280;45734;53.648;9.566;2024-02-26T08:20:53;53207.94;;;-145.06;100.00
59859;BME280;45734;53.648;9.566;2024-02-26T08:25:53;53175.53;;;-145.06;100.00
59859;BME280;45734;53.648;9.566;2024-02-26T08:30:53;53252.50;;;-145.06;100.00
59859;BME280;45734;53.648;9.566;2024-02-26T08:35:54;53236.28;;;-145.06;100.00
59859;BME280;45734;53.648;9.566;2024-02-26T08:40:54;53270.72;;;-145.06;100.00
59859;BME280;45734;53.648;9.566;2024-02-26T08:45:54;53276.78;;;-145.06;100.00
59859;BME280;45734;53.648;9.566;2024-02-26T08:50:54;53278.81;;;-145.06;100.00
59859;BME280;45734;53.648;9.566;2024-02-26T08:55:55;53252.50;;;-145.06;100.00
59859;BME280;45734;53.648;9.566;2024-02-26T09:00:55;53284.88;;;-145.06;100.00
59859;BME280;45734;53.648;9.566;2024-02-26T09:05:55;53292.97;;;-145.06;100.00
59859;BME280;45734;53.648;9.566;2024-02-26T09:10:57;53321.34;;;-145.06;100.00
59859;BME280;45734;53.648;9.566;2024-02-26T09:15:57;53288.94;;;-145.06;100.00
59859;BME280;45734;53.648;9.566;2024-02-26T09:20:58;53345.63;;;-145.06;100.00
59859;BME280;45734;53.648;9.566;2024-02-26T09:25:59;53305.13;;;-145.06;100.00
59859;BME280;45734;53.648;9.566;2024-02-26T09:30:59;53284.88;;;-145.06;100.00
59859;BME280;45734;53.648;9.566;2024-02-26T09:35:59;53311.22;;;-145.06;100.00
59859;BME280;45734;53.648;9.566;2024-02-26T09:41:04;53297.03;;;-145.06;100.00
59859;BME280;45734;53.648;9.566;2024-02-26T09:46:05;53282.88;;;-145.06;100.00
59859;BME280;45734;53.648;9.566;2024-02-26T09:51:06;53321.34;;;-145.06;100.00
59859;BME280;45734;53.648;9.566;2024-02-26T09:56:07;53262.63;;;-145.06;100.00
59859;BME280;45734;53.648;9.566;2024-02-26T10:01:18;53260.59;;;-145.06;100.00
59859;BME280;45734;53.648;9.566;2024-02-26T10:06:19;53238.31;;;-145.06;100.00
59859;BME280;45734;53.648;9.566;2024-02-26T10:11:20;53266.66;;;-145.06;100.00
59859;BME280;45734;53.648;9.566;2024-02-26T10:16:20;53256.53;;;-145.06;100.00
59859;BME280;45734;53.648;9.566;2024-02-26T10:21:22;53260.59;;;-145.06;100.00
59859;BME280;45734;53.648;9.566;2024-02-26T10:26:22;53220.09;;;-145.06;100.00
59859;BME280;45734;53.648;9.566;2024-02-26T10:31:23;53220.09;;;-145.06;100.00
59859;BME280;45734;53.648;9.566;2024-02-26T10:36:25;53256.53;;;-145.06;100.00
59859;BME280;45734;53.648;9.566;2024-02-26T10:41:27;53189.72;;;-145.06;100.00
59859;BME280;45734;53.648;9.566;2024-02-26T10:46:27;53175.53;;;-145.06;100.00
59859;BME280;45734;53.648;9.566;2024-02-26T10:51:29;53193.78;;;-145.06;100.00
59859;BME280;45734;53.648;9.566;2024-02-26T10:56:33;53201.88;;;-145.06;100.00
59859;BME280;45734;53.648;9.566;2024-02-26T11:01:35;53199.84;;;-145.06;100.00
59859;BME280;45734;53.648;9.566;2024-02-26T11:06:38;53199.84;;;-145.06;100.00
59859;BME280;45734;53.648;9.566;2024-02-26T11:11:38;53145.16;;;-145.06;100.00
59859;BME280;45734;53.648;9.566;2024-02-26T11:16:40;53118.84;;;-145.06;100.00
59859;BME280;45734;53.648;9.566;2024-02-26T11:21:42;53133.03;;;-145.06;100.00
59859;BME280;45734;53.648;9.566;2024-02-26T11:26:49;53159.34;;;-145.06;100.00
59859;BME280;45734;53.648;9.566;2024-02-26T11:31:51;53165.41;;;-145.06;100.00
59859;BME280;45734;53.648;9.566;2024-02-26T11:36:53;53133.03;;;-145.06;100.00
59859;BME280;45734;53.648;9.566;2024-02-26T11:41:53;53120.88;;;-145.06;100.00
59859;BME280;45734;53.648;9.566;2024-02-26T11:46:54;53122.91;;;-145.06;100.00
59859;BME280;45734;53.648;9.566;2024-02-26T11:51:57;53098.59;;;-145.06;100.00
59859;BME280;45734;53.648;9.566;2024-02-26T11:57:01;53098.59;;;-145.06;100.00
59859;BME280;45734;53.648;9.566;2024-02-26T12:02:01;53112.78;;;-145.06;100.00
59859;BME280;45734;53.648;9.566;2024-02-26T12:07:02;53110.75;;;-145.06;100.00
59859;BME280;45734;53.648;9.566;2024-02-26T12:12:08;53143.16;;;-145.06;100.00
59859;BME280;45734;53.648;9.566;2024-02-26T12:17:19;53173.53;;;-145.06;100.00
59859;BME280;45734;53.648;9.566;2024-02-26T12:22:20;53165.41;;;-145.06;100.00
59859;BME280;45734;53.648;9.566;2024-02-26T12:27:20;53179.59;;;-145.06;100.00
59859;BME280;45734;53.648;9.566;2024-02-26T12:32:20;53155.28;;;-145.06;100.00
59859;BME280;45734;53.648;9.566;2024-02-26T12:37:21;53171.50;;;-145.06;100.00
59859;BME280;45734;53.648;9.566;2024-02-26T12:42:21;53161.38;;;-145.06;100.00
59859;BME280;45734;53.648;9.566;2024-02-26T12:47:22;53179.59;;;-145.06;100.00
59859;BME280;45734;53.648;9.566;2024-02-26T12:52:22;53209.97;;;-145.06;100.00
59859;BME280;45734;53.648;9.566;2024-02-26T12:57:23;53189.72;;;-145.06;100.00
59859;BME280;45734;53.648;9.566;2024-02-26T13:02:24;53165.41;;;-145.06;100.00
59859;BME280;45734;53.648;9.566;2024-02-26T13:07:25;53149.22;;;-145.06;100.00
59859;BME280;45734;53.648;9.566;2024-02-26T13:12:25;53153.28;;;-145.06;100.00
59859;BME280;45734;53.648;9.566;2024-02-26T13:17:26;53155.28;;;-145.06;100.00
59859;BME280;45734;53.648;9.566;2024-02-26T13:22:28;53175.53;;;-145.06;100.00
59859;BME280;45734;53.648;9.566;2024-02-26T13:27:30;53173.53;;;-145.06;100.00
59859;BME280;45734;53.648;9.566;2024-02-26T13:32:34;53191.75;;;-145.06;100.00
59859;BME280;45734;53.648;9.566;2024-02-26T13:37:36;53187.69;;;-145.06;100.00
59859;BME280;45734;53.648;9.566;2024-02-26T13:42:37;53165.41;;;-145.06;100.00
59859;BME280;45734;53.648;9.566;2024-02-26T13:47:38;53159.34;;;-145.06;100.00
59859;BME280;45734;53.648;9.566;2024-02-26T13:52:38;53135.06;;;-145.06;100.00
59859;BME280;45734;53.648;9.566;2024-02-26T13:57:39;53163.41;;;-145.06;100.00
59859;BME280;45734;53.648;9.566;2024-02-26T14:02:39;53139.09;;;-145.06;100.00
59859;BME280;45734;53.648;9.566;2024-02-26T14:07:39;53159.34;;;-145.06;100.00
59859;BME280;45734;53.648;9.566;2024-02-26T14:12:40;53149.22;;;-145.06;100.00
59859;BME280;45734;53.648;9.566;2024-02-26T14:17:40;53175.53;;;-145.06;100.00
59859;BME280;45734;53.648;9.566;2024-02-26T14:22:41;53181.63;;;-145.06;100.00
59859;BME280;45734;53.648;9.566;2024-02-26T14:27:41;53175.53;;;-145.06;100.00
59859;BME280;45734;53.648;9.566;2024-02-26T14:32:41;53145.16;;;-145.06;100.00
59859;BME280;45734;53.648;9.566;2024-02-26T14:37:42;53177.56;;;-145.06;100.00
59859;BME280;45734;53.648;9.566;2024-02-26T14:42:44;53153.28;;;-145.06;100.00
59859;BME280;45734;53.648;9.566;2024-02-26T14:47:44;53147.19;;;-145.06;100.00
59859;BME280;45734;53.648;9.566;2024-02-26T14:52:44;53165.41;;;-145.06;100.00
59859;BME280;45734;53.648;9.566;2024-02-26T14:57:45;53171.50;;;-145.06;100.00
59859;BME280;45734;53.648;9.566;2024-02-26T15:02:45;53173.53;;;-145.06;100.00
59859;BME280;45734;53.648;9.566;2024-02-26T15:07:46;53199.84;;;-145.06;100.00
59859;BME280;45734;53.648;9.566;2024-02-26T15:12:46;53232.25;;;-145.06;100.00
59859;BME280;45734;53.648;9.566;2024-02-26T15:17:47;53260.59;;;-145.06;100.00
59859;BME280;45734;53.648;9.566;2024-02-26T15:22:49;53234.25;;;-145.06;100.00
59859;BME280;45734;53.648;9.566;2024-02-26T15:27:49;53240.34;;;-145.06;100.00
59859;BME280;45734;53.648;9.566;2024-02-26T15:32:49;53228.19;;;-145.06;100.00
59859;BME280;45734;53.648;9.566;2024-02-26T15:37:49;53220.09;;;-145.06;100.00
59859;BME280;45734;53.648;9.566;2024-02-26T15:42:50;53201.88;;;-145.06;100.00
59859;BME280;45734;53.648;9.566;2024-02-26T15:47:51;53226.16;;;-145.06;100.00
59859;BME280;45734;53.648;9.566;2024-02-26T15:52:54;53232.25;;;-145.06;100.00
59859;BME280;45734;53.648;9.566;2024-02-26T15:57:55;53248.44;;;-145.06;100.00
59859;BME280;45734;53.648;9.566;2024-02-26T16:02:55;53216.03;;;-145.06;100.00
59859;BME280;45734;53.648;9.566;2024-02-26T16:07:59;53246.41;;;-145.06;100.00
59859;BME280;45734;53.648;9.566;2024-02-26T16:13:01;53240.34;;;-145.06;100.00
59859;BME280;45734;53.648;9.566;2024-02-26T16:18:02;53276.78;;;-145.06;100.00
59859;BME280;45734;53.648;9.566;2024-02-26T16:23:02;53256.53;;;-145.06;100.00
59859;BME280;45734;53.648;9.566;2024-02-26T16:28:06;53274.75;;;-145.06;100.00
59859;BME280;45734;53.648;9.566;2024-02-26T16:33:06;53256.53;;;-145.06;100.00
59859;BME280;45734;53.648;9.566;2024-02-26T16:38:06;53236.28;;;-145.06;100.00
59859;BME280;45734;53.648;9.566;2024-02-26T16:43:07;53270.72;;;-145.06;100.00
59859;BME280;45734;53.648;9.566;2024-02-26T16:48:07;53252.50;;;-145.06;100.00
59859;BME280;45734;53.648;9.566;2024-02-26T16:53:07;53262.63;;;-145.06;100.00
59859;BME280;45734;53.648;9.566;2024-02-26T16:58:08;53280.84;;;-145.06;100.00
59859;BME280;45734;53.648;9.566;2024-02-26T17:03:09;53266.66;;;-145.06;100.00
59859;BME280;45734;53.648;9.566;2024-02-26T17:08:09;53264.63;;;-145.06;100.00
59859;BME280;45734;53.648;9.566;2024-02-26T17:13:10;53284.88;;;-145.06;100.00
59859;BME280;45734;53.648;9.566;2024-02-26T17:18:12;53250.47;;;-145.06;100.00
59859;BME280;45734;53.648;9.566;2024-02-26T17:23:15;53256.53;;;-145.06;100.00
59859;BME280;45734;53.648;9.566;2024-02-26T17:28:16;53234.25;;;-145.06;100.00
59859;BME280;45734;53.648;9.566;2024-02-26T17:33:18;53230.22;;;-145.06;100.00
59859;BME280;45734;53.648;9.566;2024-02-26T17:38:18;53246.41;;;-145.06;100.00
59859;BME280;45734;53.648;9.566;2024-02-26T17:43:19;53244.38;;;-145.06;100.00
59859;BME280;45734;53.648;9.566;2024-02-26T17:48:19;53278.81;;;-145.06;100.00
59859;BME280;45734;53.648;9.566;2024-02-26T17:53:20;53333.47;;;-145.06;100.00
59859;BME280;45734;53.648;9.566;2024-02-26T17:58:22;53339.56;;;-145.06;100.00
59859;BME280;45734;53.648;9.566;2024-02-26T18:03:22;53353.72;;;-145.06;100.00
59859;BME280;45734;53.648;9.566;2024-02-26T18:08:23;53365.88;;;-145.06;100.00
59859;BME280;45734;53.648;9.566;2024-02-26T18:13:23;53327.41;;;-145.06;100.00
59859;BME280;45734;53.648;9.566;2024-02-26T18:18:24;53343.59;;;-145.06;100.00
59859;BME280;45734;53.648;9.566;2024-02-26T18:23:25;53373.97;;;-145.06;100.00
59859;BME280;45734;53.648;9.566;2024-02-26T18:28:25;53335.50;;;-145.06;100.00
59859;BME280;45734;53.648;9.566;2024-02-26T18:33:26;53351.72;;;-145.06;100.00
59859;BME280;45734;53.648;9.566;2024-02-26T18:38:26;53347.66;;;-145.06;100.00
59859;BME280;45734;53.648;9.566;2024-02-26T18:43:27;53369.94;;;-145.06;100.00
59859;BME280;45734;53.648;9.566;2024-02-26T18:48:27;53408.41;;;-145.06;100.00
59859;BME280;45734;53.648;9.566;2024-02-26T18:53:27;53390.19;;;-145.06;100.00
59859;BME280;45734;53.648;9.566;2024-02-26T18:58:27;53384.09;;;-145.06;100.00
59859;BME280;45734;53.648;9.566;2024-02-26T19:03:29;53376.00;;;-145.06;100.00
59859;BME280;45734;53.648;9.566;2024-02-26T19:08:30;53388.16;;;-145.06;100.00
59859;BME280;45734;53.648;9.566;2024-02-26T19:13:30;53371.97;;;-145.06;100.00
59859;BME280;45734;53.648;9.566;2024-02-26T19:18:32;53392.19;;;-145.06;100.00
59859;BME280;45734;53.648;9.566;2024-02-26T19:23:32;53365.88;;;-145.06;100.00
59859;BME280;45734;53.648;9.566;2024-02-26T19:28:33;53345.63;;;-145.06;100.00
59859;BME280;45734;53.648;9.566;2024-02-26T19:33:34;53369.94;;;-145.06;100.00
59859;BME280;45734;53.648;9.566;2024-02-26T19:38:34;53353.72;;;-145.06;100.00
59859;BME280;45734;53.648;9.566;2024-02-26T19:43:34;53319.31;;;-145.06;100.00
59859;BME280;45734;53.648;9.566;2024-02-26T19:48:34;53333.47;;;-145.06;100.00
59859;BME280;45734;53.648;9.566;2024-02-26T19:53:35;53347.66;;;-145.06;100.00
59859;BME280;45734;53.648;9.566;2024-02-26T19:58:35;53337.53;;;-145.06;100.00
59859;BME280;45734;53.648;9.566;2024-02-26T20:03:36;53299.06;;;-145.06;100.00
59859;BME280;45734;53.648;9.566;2024-02-26T20:08:36;53303.09;;;-145.06;100.00
59859;BME280;45734;53.648;9.566;2024-02-26T20:13:36;53295.00;;;-145.06;100.00
59859;BME280;45734;53.648;9.566;2024-02-26T20:18:37;53297.03;;;-145.06;100.00
59859;BME280;45734;53.648;9.566;2024-02-26T20:23:38;53292.97;;;-145.06;100.00
59859;BME280;45734;53.648;9.566;2024-02-26T20:28:39;53297.03;;;-145.06;100.00
59859;BME280;45734;53.648;9.566;2024-02-26T20:33:39;53280.84;;;-145.06;100.00
59859;BME280;45734;53.648;9.566;2024-02-26T20:38:42;53278.81;;;-145.06;100.00
59859;BME280;45734;53.648;9.566;2024-02-26T20:43:42;53248.44;;;-145.06;100.00
59859;BME280;45734;53.648;9.566;2024-02-26T20:48:45;53209.97;;;-145.06;100.00
59859;BME280;45734;53.648;9.566;2024-02-26T20:53:45;53175.53;;;-145.06;100.00
59859;BME280;45734;53.648;9.566;2024-02-26T20:58:47;53207.94;;;-145.06;100.00
59859;BME280;45734;53.648;9.566;2024-02-26T21:03:47;53218.06;;;-145.06;100.00
59859;BME280;45734;53.648;9.566;2024-02-26T21:08:47;53187.69;;;-145.06;100.00
59859;BME280;45734;53.648;9.566;2024-02-26T21:13:48;53151.25;;;-145.06;100.00
59859;BME280;45734;53.648;9.566;2024-02-26T21:18:48;53167.44;;;-145.06;100.00
59859;BME280;45734;53.648;9.566;2024-02-26T21:23:48;53133.03;;;-145.06;100.00
59859;BME280;45734;53.648;9.566;2024-02-26T21:28:49;53114.81;;;-145.06;100.00
59859;BME280;45734;53.648;9.566;2024-02-26T21:33:49;53090.50;;;-145.06;100.00
59859;BME280;45734;53.648;9.566;2024-02-26T21:38:50;53043.94;;;-145.06;100.00
59859;BME280;45734;53.648;9.566;2024-02-26T21:43:50;53025.72;;;-145.06;100.00
59859;BME280;45734;53.648;9.566;2024-02-26T21:48:51;53001.41;;;-145.06;100.00
59859;BME280;45734;53.648;9.566;2024-02-26T21:53:51;52991.28;;;-145.06;100.00
59859;BME280;45734;53.648;9.566;2024-02-26T21:58:52;53003.44;;;-145.06;100.00
59859;BME280;45734;53.648;9.566;2024-02-26T22:03:52;52973.06;;;-145.06;100.00
59859;BME280;45734;53.648;9.566;2024-02-26T22:08:52;52971.03;;;-145.06;100.00
59859;BME280;45734;53.648;9.566;2024-02-26T22:13:54;53031.78;;;-145.06;100.00
59859;BME280;45734;53.648;9.566;2024-02-26T22:18:54;53013.56;;;-145.06;100.00
59859;BME280;45734;53.648;9.566;2024-02-26T22:23:54;53015.59;;;-145.06;100.00
59859;BME280;45734;53.648;9.566;2024-02-26T22:28:54;53005.47;;;-145.06;100.00
59859;BME280;45734;53.648;9.566;2024-02-26T22:33:55;52985.22;;;-145.06;100.00
59859;BME280;45734;53.648;9.566;2024-02-26T22:38:57;53015.59;;;-145.06;100.00
59859;BME280;45734;53.648;9.566;2024-02-26T22:43:57;52997.38;;;-145.06;100.00
59859;BME280;45734;53.648;9.566;2024-02-26T22:48:58;53025.72;;;-145.06;100.00
59859;BME280;45734;53.648;9.566;2024-02-26T22:53:58;53013.56;;;-145.06;100.00
59859;BME280;45734;53.648;9.566;2024-02-26T22:58:58;53037.88;;;-145.06;100.00
59859;BME280;45734;53.648;9.566;2024-02-26T23:04:03;53029.75;;;-145.06;100.00
59859;BME280;45734;53.648;9.566;2024-02-26T23:09:04;53045.97;;;-145.06;100.00
59859;BME280;45734;53.648;9.566;2024-02-26T23:14:05;53060.13;;;-145.06;100.00
59859;BME280;45734;53.648;9.566;2024-02-26T23:19:05;53017.63;;;-145.06;100.00
59859;BME280;45734;53.648;9.566;2024-02-26T23:24:06;53050.00;;;-145.06;100.00
59859;BME280;45734;53.648;9.566;2024-02-26T23:29:06;53058.09;;;-145.06;100.00
59859;BME280;45734;53.648;9.566;2024-02-26T23:34:06;53086.47;;;-145.06;100.00
59859;BME280;45734;53.648;9.566;2024-02-26T23:39:07;53084.44;;;-145.06;100.00
59859;BME280;45734;53.648;9.566;2024-02-26T23:44:07;53062.16;;;-145.06;100.00
59859;BME280;45734;53.648;9.566;2024-02-26T23:49:07;53110.75;;;-145.06;100.00
59859;BME280;45734;53.648;9.566;2024-02-26T23:54:08;53122.91;;;-145.06;100.00
59859;BME280;45734;53.648;9.566;2024-02-26T23:59:08;53106.69;;;-145.06;100.00
